createdAt,value
2023-05-21T00:00:19.135Z,67.32
2023-05-21T00:02:52.156Z,67.79
2023-05-21T00:05:19.308Z,67.77
2023-05-21T00:08:09.202Z,67.62
2023-05-21T00:10:42.900Z,68.10
2023-05-21T00:13:17.122Z,67.21
2023-05-21T00:15:44.509Z,68.00
2023-05-21T00:18:19.129Z,68.17
2023-05-21T00:20:46.185Z,67.81
2023-05-21T00:23:20.122Z,68.19
2023-05-21T00:25:47.152Z,68.16
2023-05-21T00:28:20.112Z,68.27
2023-05-21T00:30:54.091Z,68.60
2023-05-21T00:33:29.155Z,68.25
2023-05-21T00:36:03.076Z,68.17
2023-05-21T00:38:36.053Z,68.15
2023-05-21T00:41:09.212Z,68.06
2023-05-21T00:43:51.065Z,69.00
2023-05-21T00:46:26.240Z,68.86
2023-05-21T00:49:02.079Z,69.29
2023-05-21T00:51:38.167Z,68.64
2023-05-21T00:54:05.021Z,69.15
2023-05-21T00:56:40.184Z,68.77
2023-05-21T00:59:07.844Z,69.39
2023-05-21T01:01:44.238Z,69.76
2023-05-21T01:04:12.326Z,69.47
2023-05-21T01:06:46.109Z,70.02
2023-05-21T01:09:13.213Z,69.86
2023-05-21T01:11:58.077Z,69.92
2023-05-21T01:14:25.758Z,70.31
2023-05-21T01:17:00.163Z,70.53
2023-05-21T01:19:33.279Z,70.42
2023-05-21T01:22:15.278Z,70.77
2023-05-21T01:24:54.101Z,71.20
2023-05-21T01:27:21.366Z,70.93
2023-05-21T01:29:55.169Z,71.11
2023-05-21T01:32:28.772Z,71.35
2023-05-21T01:35:44.135Z,71.08
2023-05-21T01:38:26.736Z,70.97
2023-05-21T01:41:15.324Z,71.79
2023-05-21T01:43:49.132Z,72.10
2023-05-21T01:46:27.192Z,72.37
2023-05-21T01:48:59.473Z,72.68
2023-05-21T01:51:34.151Z,72.34
2023-05-21T01:54:03.744Z,72.45
2023-05-21T01:56:40.193Z,73.10
2023-05-21T01:59:09.558Z,72.87
2023-05-21T02:01:43.165Z,73.16
2023-05-21T02:04:10.264Z,73.44
2023-05-21T02:06:46.346Z,73.50
2023-05-21T02:09:13.409Z,73.60
2023-05-21T02:11:47.281Z,73.70
2023-05-21T02:14:23.211Z,73.89
2023-05-21T02:16:51.038Z,73.40
2023-05-21T02:19:27.359Z,74.27
2023-05-21T02:21:57.227Z,74.55
2023-05-21T02:24:34.180Z,74.81
2023-05-21T02:27:01.313Z,74.85
2023-05-21T02:29:35.299Z,75.35
2023-05-21T02:32:09.342Z,75.92
2023-05-21T02:34:44.175Z,76.24
2023-05-21T02:37:14.289Z,76.24
2023-05-21T02:39:48.266Z,75.98
2023-05-21T02:42:29.308Z,75.94
2023-05-21T02:45:05.979Z,76.19
2023-05-21T02:47:34.764Z,76.52
2023-05-21T02:50:11.607Z,76.46
2023-05-21T02:52:38.692Z,76.19
2023-05-21T02:55:06.386Z,76.99
2023-05-21T02:57:40.125Z,77.52
2023-05-21T03:00:15.227Z,77.73
2023-05-21T03:02:43.313Z,78.10
2023-05-21T03:05:11.114Z,77.41
2023-05-21T03:07:45.257Z,78.62
2023-05-21T03:10:25.118Z,78.77
2023-05-21T03:12:53.815Z,78.69
2023-05-21T03:15:30.361Z,78.75
2023-05-21T03:18:04.366Z,79.19
2023-05-21T03:20:39.421Z,79.65
2023-05-21T03:23:16.901Z,79.51
2023-05-21T03:25:51.347Z,79.35
2023-05-21T03:28:25.213Z,79.49
2023-05-21T03:30:53.687Z,79.68
2023-05-21T03:33:27.283Z,80.16
2023-05-21T03:35:55.250Z,79.95
2023-05-21T03:38:25.435Z,80.55
2023-05-21T03:40:59.274Z,80.20
2023-05-21T03:43:33.158Z,80.38
2023-05-21T03:46:06.223Z,80.34
2023-05-21T03:48:33.181Z,80.58
2023-05-21T03:51:09.157Z,80.76
2023-05-21T03:53:37.523Z,80.63
2023-05-21T03:56:11.259Z,80.73
2023-05-21T03:58:38.846Z,81.02
2023-05-21T04:01:06.024Z,81.08
2023-05-21T04:03:42.525Z,80.72
2023-05-21T04:06:10.569Z,80.82
2023-05-21T04:08:45.358Z,80.19
2023-05-21T04:11:22.284Z,80.44
2023-05-21T04:13:49.543Z,80.39
2023-05-21T04:16:25.386Z,80.43
2023-05-21T04:18:55.731Z,80.75
2023-05-21T04:21:29.206Z,80.38
2023-05-21T04:24:04.191Z,80.01
2023-05-21T04:26:41.280Z,80.01
2023-05-21T04:29:16.269Z,80.06
2023-05-21T04:31:43.745Z,80.28
2023-05-21T04:34:17.358Z,80.03
2023-05-21T04:36:45.933Z,80.06
2023-05-21T04:39:20.351Z,79.78
2023-05-21T04:41:55.252Z,80.13
2023-05-21T04:44:39.391Z,79.98
2023-05-21T04:47:15.154Z,79.76
2023-05-21T04:49:49.312Z,80.06
2023-05-21T04:52:17.088Z,79.71
2023-05-21T04:54:52.375Z,79.49
2023-05-21T04:57:19.926Z,79.81
2023-05-21T04:59:56.291Z,79.90
2023-05-21T05:02:30.352Z,79.61
2023-05-21T05:05:00.227Z,79.28
2023-05-21T05:07:37.434Z,79.48
2023-05-21T05:10:07.659Z,79.43
2023-05-21T05:12:41.370Z,79.32
2023-05-21T05:15:09.760Z,79.46
2023-05-21T05:17:43.378Z,79.58
2023-05-21T05:20:12.356Z,79.15
2023-05-21T05:22:48.272Z,79.00
2023-05-21T05:25:19.034Z,79.21
2023-05-21T05:27:52.387Z,78.92
2023-05-21T05:30:26.513Z,78.48
2023-05-21T05:33:00.316Z,79.07
2023-05-21T05:35:27.693Z,79.08
2023-05-21T05:38:01.366Z,78.37
2023-05-21T05:40:28.462Z,78.33
2023-05-21T05:43:08.343Z,78.51
2023-05-21T05:45:42.354Z,78.00
2023-05-21T05:48:10.466Z,78.59
2023-05-21T05:50:44.329Z,78.01
2023-05-21T05:53:13.765Z,77.83
2023-05-21T05:55:48.272Z,77.73
2023-05-21T05:58:15.616Z,77.20
2023-05-21T06:00:49.380Z,77.41
2023-05-21T06:03:19.022Z,77.43
2023-05-21T06:05:52.377Z,77.41
2023-05-21T06:08:19.517Z,77.45
2023-05-21T06:10:55.343Z,76.97
2023-05-21T06:13:22.320Z,76.58
2023-05-21T06:16:01.054Z,77.14
2023-05-21T06:18:34.353Z,76.71
2023-05-21T06:21:08.285Z,76.46
2023-05-21T06:23:37.008Z,76.68
2023-05-21T06:26:14.304Z,76.68
2023-05-21T06:28:54.428Z,76.52
2023-05-21T06:31:29.316Z,76.09
2023-05-21T06:33:56.448Z,76.11
2023-05-21T06:36:32.342Z,77.01
2023-05-21T06:39:08.300Z,75.57
2023-05-21T06:41:55.261Z,76.04
2023-05-21T06:44:22.458Z,75.31
2023-05-21T06:46:51.998Z,75.80
2023-05-21T06:49:25.352Z,74.85
2023-05-21T06:51:52.303Z,75.65
2023-05-21T06:54:28.335Z,74.57
2023-05-21T06:57:01.359Z,75.25
2023-05-21T06:59:28.356Z,74.41
2023-05-21T07:02:04.465Z,73.92
2023-05-21T07:04:38.362Z,73.92
2023-05-21T07:07:05.373Z,74.28
2023-05-21T07:09:41.348Z,74.08
2023-05-21T07:12:08.314Z,74.75
2023-05-21T07:14:35.234Z,73.53
2023-05-21T07:17:08.452Z,72.86
2023-05-21T07:19:42.371Z,73.51
2023-05-21T07:22:15.349Z,73.48
2023-05-21T07:24:42.302Z,73.23
2023-05-21T07:27:25.398Z,72.53
2023-05-21T07:29:53.048Z,71.77
2023-05-21T07:32:26.409Z,71.65
2023-05-21T07:34:54.406Z,71.38
2023-05-21T07:37:28.378Z,72.02
2023-05-21T07:39:58.980Z,72.02
2023-05-21T07:42:39.371Z,70.89
2023-05-21T07:45:09.784Z,71.51
2023-05-21T07:47:43.593Z,70.04
2023-05-21T07:50:11.345Z,70.49
2023-05-21T07:52:44.480Z,69.51
2023-05-21T07:55:11.438Z,69.78
2023-05-21T07:57:44.334Z,69.12
2023-05-21T08:00:14.480Z,70.34
2023-05-21T08:02:41.530Z,70.73
2023-05-21T08:05:18.743Z,70.30
2023-05-21T08:07:53.403Z,69.99
2023-05-21T08:10:26.427Z,69.01
2023-05-21T08:12:53.260Z,68.38
2023-05-21T08:15:26.566Z,68.09
2023-05-21T08:17:53.437Z,69.38
2023-05-21T12:27:06.496Z,51.30
2023-05-21T12:29:40.494Z,49.81
2023-05-21T12:32:15.553Z,49.65
2023-05-21T12:34:44.938Z,49.76
2023-05-21T12:37:31.697Z,49.33
2023-05-21T12:40:00.724Z,48.43
2023-05-21T12:42:42.555Z,47.73
2023-05-21T12:45:10.528Z,49.03
2023-05-21T12:47:44.627Z,48.13
2023-05-21T12:50:12.961Z,48.76
2023-05-21T12:52:49.689Z,47.53
2023-05-21T12:55:17.609Z,46.21
2023-05-21T12:57:50.571Z,46.52
2023-05-21T13:00:30.645Z,46.27
2023-05-21T13:03:00.347Z,46.76
2023-05-21T13:05:33.495Z,46.20
2023-05-21T13:08:00.322Z,46.38
2023-05-21T13:10:33.543Z,48.08
2023-05-21T13:13:00.587Z,47.93
2023-05-21T13:15:34.681Z,45.79
2023-05-21T13:18:02.427Z,46.22
2023-05-21T13:20:36.975Z,44.57
2023-05-21T13:23:07.203Z,45.57
2023-05-21T13:25:41.569Z,43.89
2023-05-21T13:28:16.282Z,44.58
2023-05-21T13:30:49.597Z,45.05
2023-05-21T13:33:16.950Z,43.05
2023-05-21T13:35:52.553Z,44.55
2023-05-21T13:38:19.600Z,43.13
2023-05-21T13:40:46.611Z,43.81
2023-05-21T13:43:19.574Z,43.07
2023-05-21T13:45:49.703Z,44.81
2023-05-21T13:48:23.764Z,44.60
2023-05-21T13:50:50.773Z,44.50
2023-05-21T13:53:26.562Z,43.00
2023-05-21T13:55:53.697Z,43.41
2023-05-21T13:58:27.579Z,43.45
2023-05-21T14:00:54.772Z,44.21
2023-05-21T14:03:28.610Z,45.40
2023-05-21T14:05:56.207Z,43.80
2023-05-21T14:08:30.600Z,44.04
2023-05-21T14:11:05.029Z,43.54
2023-05-21T14:13:32.793Z,44.35
2023-05-21T14:16:06.608Z,43.86
2023-05-21T14:18:33.649Z,42.59
2023-05-21T14:21:06.711Z,43.94
2023-05-21T14:23:33.681Z,43.41
2023-05-21T14:26:07.595Z,42.75
2023-05-21T14:28:40.839Z,43.67
2023-05-21T14:31:20.734Z,43.49
2023-05-21T14:33:47.759Z,42.97
2023-05-21T14:36:21.773Z,44.53
2023-05-21T14:38:55.622Z,42.75
2023-05-21T14:41:35.856Z,43.65
2023-05-21T14:44:03.340Z,44.13
2023-05-21T14:46:36.860Z,44.64
2023-05-21T14:49:10.594Z,44.73
2023-05-21T14:51:37.347Z,45.64
2023-05-21T14:54:10.632Z,44.11
2023-05-21T14:56:37.516Z,45.36
2023-05-21T14:59:10.641Z,44.67
2023-05-21T15:01:37.714Z,46.43
2023-05-21T15:04:11.844Z,46.30
2023-05-21T15:06:38.982Z,45.14
2023-05-21T15:09:12.594Z,45.19
2023-05-21T15:11:40.446Z,46.03
2023-05-21T15:14:14.852Z,46.31
2023-05-21T15:16:42.252Z,46.66
2023-05-21T15:19:15.708Z,46.08
2023-05-21T15:21:42.781Z,45.24
2023-05-21T15:24:18.832Z,46.53
2023-05-21T15:26:52.639Z,45.43
2023-05-21T15:29:25.895Z,46.02
2023-05-21T15:31:59.638Z,44.41
2023-05-21T15:34:26.952Z,42.69
2023-05-21T15:37:00.667Z,44.31
2023-05-21T15:39:27.837Z,43.68
2023-05-21T15:42:01.580Z,45.82
2023-05-21T15:44:28.548Z,44.80
2023-05-21T15:47:01.974Z,45.33
2023-05-21T15:49:29.220Z,44.91
2023-05-21T15:52:04.663Z,45.01
2023-05-21T15:54:37.646Z,44.64
2023-05-21T15:57:10.660Z,45.34
2023-05-21T15:59:43.653Z,44.21
2023-05-21T16:02:10.796Z,45.63
2023-05-21T16:04:44.813Z,44.96
2023-05-21T16:07:11.883Z,46.29
2023-05-21T16:09:45.691Z,46.15
2023-05-21T16:12:12.714Z,46.50
2023-05-21T16:14:46.725Z,46.26
2023-05-21T16:17:13.846Z,47.96
2023-05-21T16:19:47.897Z,47.77
2023-05-21T16:22:21.706Z,47.33
2023-05-21T16:24:55.751Z,46.86
2023-05-21T16:27:29.736Z,46.80
2023-05-21T16:30:04.400Z,47.69
2023-05-21T16:32:37.762Z,46.98
2023-05-21T16:35:11.936Z,47.57
2023-05-21T16:37:45.694Z,48.48
2023-05-21T16:40:20.860Z,48.97
2023-05-21T16:42:54.668Z,49.45
2023-05-21T16:45:29.696Z,49.53
2023-05-21T16:48:02.844Z,49.92
2023-05-21T16:50:29.826Z,51.37
2023-05-21T16:53:03.681Z,51.61
2023-05-21T16:55:31.638Z,53.18
2023-05-21T16:58:05.740Z,52.46
2023-05-21T17:00:33.694Z,52.71
2023-05-21T17:03:07.909Z,53.99
2023-05-21T17:05:41.737Z,53.33
2023-05-21T17:08:09.185Z,53.53
2023-05-21T17:10:42.786Z,52.88
2023-05-21T17:13:21.289Z,54.69
2023-05-21T17:15:56.017Z,54.75
2023-05-21T17:18:23.066Z,54.17
2023-05-21T17:20:56.839Z,53.85
2023-05-21T17:23:30.661Z,54.81
2023-05-21T17:26:04.697Z,54.93
2023-05-21T17:28:37.850Z,57.13
2023-05-21T17:31:17.782Z,55.90
2023-05-21T17:33:51.788Z,56.70
2023-05-21T17:36:25.755Z,57.11
2023-05-21T17:38:52.702Z,55.69
2023-05-21T17:41:25.787Z,56.11
2023-05-21T17:43:52.729Z,57.85
2023-05-21T17:46:19.807Z,56.85
2023-05-21T17:48:53.912Z,56.78
2023-05-21T17:51:20.850Z,58.32
2023-05-21T17:53:54.732Z,57.47
2023-05-21T17:56:28.771Z,58.71
2023-05-21T17:59:02.744Z,57.33
2023-05-21T18:01:29.839Z,58.70
2023-05-21T18:04:03.783Z,57.97
2023-05-21T18:06:31.502Z,58.48
2023-05-21T18:09:05.804Z,59.70
2023-05-21T18:11:32.841Z,59.21
2023-05-21T18:14:06.844Z,59.59
2023-05-21T18:16:33.833Z,60.17
2023-05-21T18:19:06.081Z,60.24
2023-05-21T18:21:40.899Z,60.19
2023-05-21T18:24:08.272Z,60.73
2023-05-21T18:26:35.166Z,61.03
2023-05-21T18:29:08.770Z,61.35
2023-05-21T18:31:35.671Z,61.46
2023-05-21T18:34:08.799Z,61.32
2023-05-21T18:36:39.134Z,61.25
2023-05-21T18:39:15.822Z,62.24
2023-05-21T18:41:43.005Z,62.72
2023-05-21T18:44:16.811Z,62.66
2023-05-21T18:46:44.666Z,62.52
2023-05-21T18:49:18.840Z,63.81
2023-05-21T18:51:45.783Z,63.65
2023-05-21T18:54:18.768Z,64.23
2023-05-21T18:56:45.766Z,63.13
2023-05-21T18:59:19.835Z,64.54
2023-05-21T19:01:46.843Z,63.46
2023-05-21T19:04:14.040Z,64.50
2023-05-21T19:06:47.862Z,65.41
2023-05-21T19:09:20.807Z,64.65
2023-05-21T19:11:53.833Z,64.63
2023-05-21T19:14:21.364Z,65.04
2023-05-21T19:16:54.882Z,65.35
2023-05-21T19:19:21.956Z,65.99
2023-05-21T19:21:55.838Z,66.97
2023-05-21T19:24:22.962Z,67.09
2023-05-21T19:26:56.932Z,67.62
2023-05-21T19:29:29.887Z,67.48
2023-05-21T19:32:03.906Z,67.70
2023-05-21T19:34:31.176Z,67.96
2023-05-21T19:37:04.866Z,68.34
2023-05-21T19:39:48.779Z,68.07
2023-05-21T19:42:17.682Z,69.47
2023-05-21T19:44:50.843Z,69.66
2023-05-21T19:47:23.964Z,70.84
2023-05-21T19:49:57.841Z,70.22
2023-05-21T19:52:31.849Z,70.64
2023-05-21T19:55:11.942Z,71.19
2023-05-21T19:57:46.918Z,71.57
2023-05-21T20:00:20.869Z,71.84
2023-05-21T20:02:48.123Z,72.36
2023-05-21T20:05:15.344Z,72.96
2023-05-21T20:07:48.960Z,73.10
2023-05-21T20:10:22.979Z,73.25
2023-05-21T20:12:49.916Z,73.32
2023-05-21T20:15:24.968Z,73.21
2023-05-21T20:17:51.949Z,74.08
2023-05-21T20:20:25.834Z,74.04
2023-05-21T20:23:00.865Z,74.05
2023-05-21T20:25:34.062Z,74.13
2023-05-21T20:28:10.834Z,74.93
2023-05-21T20:30:55.393Z,74.18
2023-05-21T20:33:28.855Z,74.59
2023-05-21T20:35:56.210Z,74.77
2023-05-21T20:38:32.783Z,74.78
2023-05-21T20:41:00.745Z,74.76
2023-05-21T20:43:34.930Z,74.95
2023-05-21T20:46:02.746Z,75.40
2023-05-21T20:48:36.808Z,75.42
2023-05-21T20:51:04.855Z,75.44
2023-05-21T20:53:32.273Z,75.34
2023-05-21T20:56:08.184Z,76.01
2023-05-21T20:58:41.939Z,75.82
2023-05-21T21:01:11.084Z,76.59
2023-05-21T21:03:47.962Z,76.80
2023-05-21T21:06:19.079Z,76.76
2023-05-21T21:08:52.846Z,77.50
2023-05-21T21:11:26.855Z,77.99
2023-05-21T21:14:00.001Z,78.09
2023-05-21T21:16:34.065Z,78.28
2023-05-21T21:19:01.583Z,78.70
2023-05-21T21:21:35.871Z,78.66
2023-05-21T21:24:03.009Z,79.03
2023-05-21T21:26:36.891Z,78.82
2023-05-21T21:29:10.085Z,78.74
2023-05-21T21:31:50.868Z,78.68
2023-05-21T21:34:17.847Z,79.24
2023-05-21T21:36:50.913Z,79.70
2023-05-21T21:39:18.103Z,79.60
2023-05-21T21:41:51.993Z,78.96
2023-05-21T21:44:19.919Z,78.06
2023-05-21T21:46:53.974Z,78.00
2023-05-21T21:49:27.947Z,76.76
2023-05-21T21:51:58.158Z,75.85
2023-05-21T21:54:32.018Z,76.38
2023-05-21T21:56:59.754Z,75.35
2023-05-21T21:59:32.915Z,75.00
2023-05-21T22:02:03.160Z,74.60
2023-05-21T22:04:36.899Z,74.12
2023-05-21T22:07:04.036Z,73.32
2023-05-21T22:09:37.996Z,73.23
2023-05-21T22:12:07.965Z,73.35
2023-05-21T22:14:41.952Z,73.28
2023-05-21T22:17:09.393Z,73.26
2023-05-21T22:19:43.034Z,72.73
2023-05-21T22:22:10.353Z,72.39
2023-05-21T22:24:43.945Z,72.30
2023-05-21T22:27:17.073Z,72.82
2023-05-21T22:29:50.131Z,72.32
2023-05-21T22:32:23.865Z,73.37
2023-05-21T22:34:57.118Z,73.42
2023-05-21T22:37:32.984Z,73.46
2023-05-21T22:40:00.200Z,73.38
2023-05-21T22:42:33.971Z,73.63
2023-05-21T22:45:01.203Z,74.60
2023-05-21T22:47:35.074Z,74.98
2023-05-21T22:50:04.678Z,75.82
2023-05-21T22:52:38.953Z,76.97
2023-05-21T22:55:06.674Z,77.44
2023-05-21T22:57:40.027Z,77.63
2023-05-21T23:00:08.047Z,77.22
2023-05-21T23:02:42.646Z,77.60
2023-05-21T23:05:16.150Z,79.08
2023-05-21T23:07:50.016Z,78.66
2023-05-21T23:10:24.282Z,79.44
2023-05-21T23:12:51.322Z,79.73
2023-05-21T23:15:26.327Z,80.31
2023-05-21T23:17:55.536Z,79.72
2023-05-21T23:20:30.077Z,79.29
2023-05-21T23:22:57.061Z,79.57
2023-05-21T23:25:31.262Z,79.82
2023-05-21T23:28:19.078Z,79.84
2023-05-21T23:30:53.084Z,80.04
2023-05-21T23:33:20.145Z,80.44
2023-05-21T23:35:54.043Z,80.01
2023-05-21T23:38:21.129Z,80.15
2023-05-21T23:40:55.267Z,81.02
2023-05-21T23:43:22.084Z,81.22
2023-05-21T23:45:56.224Z,81.26
2023-05-21T23:48:30.178Z,81.65
2023-05-21T23:51:03.941Z,81.43
2023-05-21T23:53:38.051Z,81.47
2023-05-21T23:56:05.959Z,81.23
2023-05-21T23:58:38.953Z,82.15
